sensor_id;sensor_type;location;lat;lon;timestamp;pressure;altitude;pressure_sealevel;temperature
12875;BMP180;6505;51.114;13.128;2022-07-03T00:01:38;100008.00;;;24.60
12875;BMP180;6505;51.114;13.128;2022-07-03T00:04:08;100015.00;;;24.50
12875;BMP180;6505;51.114;13.128;2022-07-03T00:06:36;100008.00;;;24.50
12875;BMP180;6505;51.114;13.128;2022-07-03T00:09:05;100002.00;;;24.50
12875;BMP180;6505;51.114;13.128;2022-07-03T00:11:33;99996.00;;;24.40
12875;BMP180;6505;51.114;13.128;2022-07-03T00:14:02;99997.00;;;24.40
12875;BMP180;6505;51.114;13.128;2022-07-03T00:16:31;99998.00;;;24.40
12875;BMP180;6505;51.114;13.128;2022-07-03T00:18:59;100005.00;;;24.40
12875;BMP180;6505;51.114;13.128;2022-07-03T00:21:34;99989.00;;;24.30
12875;BMP180;6505;51.114;13.128;2022-07-03T00:24:07;99997.00;;;24.30
12875;BMP180;6505;51.114;13.128;2022-07-03T00:26:39;99991.00;;;24.30
12875;BMP180;6505;51.114;13.128;2022-07-03T00:29:10;99984.00;;;24.20
12875;BMP180;6505;51.114;13.128;2022-07-03T00:31:38;99989.00;;;24.20
12875;BMP180;6505;51.114;13.128;2022-07-03T00:34:14;99984.00;;;24.20
12875;BMP180;6505;51.114;13.128;2022-07-03T00:36:46;99980.00;;;24.10
12875;BMP180;6505;51.114;13.128;2022-07-03T00:39:16;99982.00;;;24.10
12875;BMP180;6505;51.114;13.128;2022-07-03T00:41:45;99978.00;;;24.10
12875;BMP180;6505;51.114;13.128;2022-07-03T00:44:13;99976.00;;;24.10
12875;BMP180;6505;51.114;13.128;2022-07-03T00:46:46;99983.00;;;24.00
12875;BMP180;6505;51.114;13.128;2022-07-03T00:49:18;99977.00;;;24.00
12875;BMP180;6505;51.114;13.128;2022-07-03T00:51:53;99979.00;;;24.00
12875;BMP180;6505;51.114;13.128;2022-07-03T00:54:24;99976.00;;;24.00
12875;BMP180;6505;51.114;13.128;2022-07-03T00:56:59;99981.00;;;23.90
12875;BMP180;6505;51.114;13.128;2022-07-03T00:59:28;99975.00;;;23.90
12875;BMP180;6505;51.114;13.128;2022-07-03T01:02:03;99969.00;;;23.90
12875;BMP180;6505;51.114;13.128;2022-07-03T01:04:45;99962.00;;;23.80
12875;BMP180;6505;51.114;13.128;2022-07-03T01:07:37;99955.00;;;23.80
12875;BMP180;6505;51.114;13.128;2022-07-03T01:10:17;99962.00;;;23.80
12875;BMP180;6505;51.114;13.128;2022-07-03T01:13:00;99947.00;;;23.70
12875;BMP180;6505;51.114;13.128;2022-07-03T01:15:41;99958.00;;;23.70
12875;BMP180;6505;51.114;13.128;2022-07-03T01:18:30;99953.00;;;23.70
12875;BMP180;6505;51.114;13.128;2022-07-03T01:21:06;99955.00;;;23.70
12875;BMP180;6505;51.114;13.128;2022-07-03T01:24:08;99941.00;;;23.60
12875;BMP180;6505;51.114;13.128;2022-07-03T01:26:47;99952.00;;;23.60
12875;BMP180;6505;51.114;13.128;2022-07-03T01:29:25;99932.00;;;23.60
12875;BMP180;6505;51.114;13.128;2022-07-03T01:31:55;99942.00;;;23.60
12875;BMP180;6505;51.114;13.128;2022-07-03T01:34:31;99946.00;;;23.50
12875;BMP180;6505;51.114;13.128;2022-07-03T01:37:03;99934.00;;;23.50
12875;BMP180;6505;51.114;13.128;2022-07-03T01:39:35;99936.00;;;23.50
12875;BMP180;6505;51.114;13.128;2022-07-03T01:42:24;99901.00;;;23.50
12875;BMP180;6505;51.114;13.128;2022-07-03T01:44:54;99930.00;;;23.50
12875;BMP180;6505;51.114;13.128;2022-07-03T01:47:25;99925.00;;;23.40
12875;BMP180;6505;51.114;13.128;2022-07-03T01:49:55;99930.00;;;23.40
12875;BMP180;6505;51.114;13.128;2022-07-03T01:52:25;99935.00;;;23.40
12875;BMP180;6505;51.114;13.128;2022-07-03T01:55:15;99920.00;;;23.40
12875;BMP180;6505;51.114;13.128;2022-07-03T01:57:47;99914.00;;;23.30
12875;BMP180;6505;51.114;13.128;2022-07-03T02:00:18;99915.00;;;23.30
12875;BMP180;6505;51.114;13.128;2022-07-03T02:02:56;99921.00;;;23.30
12875;BMP180;6505;51.114;13.128;2022-07-03T02:05:38;99924.00;;;23.30
12875;BMP180;6505;51.114;13.128;2022-07-03T02:08:22;99915.00;;;23.20
12875;BMP180;6505;51.114;13.128;2022-07-03T02:11:10;99921.00;;;23.20
12875;BMP180;6505;51.114;13.128;2022-07-03T02:13:52;99903.00;;;23.20
12875;BMP180;6505;51.114;13.128;2022-07-03T02:16:25;99922.00;;;23.20
12875;BMP180;6505;51.114;13.128;2022-07-03T02:19:02;99904.00;;;23.10
12875;BMP180;6505;51.114;13.128;2022-07-03T02:21:31;99915.00;;;23.10
12875;BMP180;6505;51.114;13.128;2022-07-03T02:24:16;99892.00;;;23.10
12875;BMP180;6505;51.114;13.128;2022-07-03T02:26:54;99912.00;;;23.10
12875;BMP180;6505;51.114;13.128;2022-07-03T02:29:32;99916.00;;;23.10
12875;BMP180;6505;51.114;13.128;2022-07-03T02:32:04;99908.00;;;23.00
12875;BMP180;6505;51.114;13.128;2022-07-03T02:34:35;99909.00;;;23.00
12875;BMP180;6505;51.114;13.128;2022-07-03T02:37:12;99909.00;;;23.00
12875;BMP180;6505;51.114;13.128;2022-07-03T02:39:45;99905.00;;;23.00
12875;BMP180;6505;51.114;13.128;2022-07-03T02:42:28;99905.00;;;22.90
12875;BMP180;6505;51.114;13.128;2022-07-03T02:45:03;99899.00;;;22.90
12875;BMP180;6505;51.114;13.128;2022-07-03T02:47:43;99897.00;;;22.90
12875;BMP180;6505;51.114;13.128;2022-07-03T02:50:20;99851.00;;;22.90
12875;BMP180;6505;51.114;13.128;2022-07-03T02:53:06;99902.00;;;22.90
12875;BMP180;6505;51.114;13.128;2022-07-03T02:55:41;99901.00;;;22.80
12875;BMP180;6505;51.114;13.128;2022-07-03T02:58:32;99911.00;;;22.80
12875;BMP180;6505;51.114;13.128;2022-07-03T03:01:23;99902.00;;;22.80
12875;BMP180;6505;51.114;13.128;2022-07-03T03:04:12;99906.00;;;22.70
12875;BMP180;6505;51.114;13.128;2022-07-03T03:06:55;99913.00;;;22.70
12875;BMP180;6505;51.114;13.128;2022-07-03T03:09:27;99924.00;;;22.70
12875;BMP180;6505;51.114;13.128;2022-07-03T03:12:01;99912.00;;;22.70
12875;BMP180;6505;51.114;13.128;2022-07-03T03:14:39;99911.00;;;22.70
12875;BMP180;6505;51.114;13.128;2022-07-03T03:17:18;99916.00;;;22.70
12875;BMP180;6505;51.114;13.128;2022-07-03T03:19:52;99913.00;;;22.70
12875;BMP180;6505;51.114;13.128;2022-07-03T03:22:33;99918.00;;;22.60
12875;BMP180;6505;51.114;13.128;2022-07-03T03:25:11;99906.00;;;22.70
12875;BMP180;6505;51.114;13.128;2022-07-03T03:27:40;99910.00;;;22.60
12875;BMP180;6505;51.114;13.128;2022-07-03T03:30:09;99920.00;;;22.60
12875;BMP180;6505;51.114;13.128;2022-07-03T03:32:40;99920.00;;;22.60
12875;BMP180;6505;51.114;13.128;2022-07-03T03:35:09;99921.00;;;22.70
12875;BMP180;6505;51.114;13.128;2022-07-03T03:37:37;99914.00;;;22.70
12875;BMP180;6505;51.114;13.128;2022-07-03T03:40:07;99907.00;;;22.70
12875;BMP180;6505;51.114;13.128;2022-07-03T03:42:36;99917.00;;;22.70
12875;BMP180;6505;51.114;13.128;2022-07-03T03:45:05;99912.00;;;22.70
12875;BMP180;6505;51.114;13.128;2022-07-03T03:47:34;99915.00;;;22.70
12875;BMP180;6505;51.114;13.128;2022-07-03T03:50:04;99904.00;;;22.70
12875;BMP180;6505;51.114;13.128;2022-07-03T03:52:33;99906.00;;;22.80
12875;BMP180;6505;51.114;13.128;2022-07-03T03:55:01;99900.00;;;22.80
12875;BMP180;6505;51.114;13.128;2022-07-03T03:57:29;99905.00;;;22.80
12875;BMP180;6505;51.114;13.128;2022-07-03T03:59:57;99868.00;;;22.80
12875;BMP180;6505;51.114;13.128;2022-07-03T04:02:25;99898.00;;;22.80
12875;BMP180;6505;51.114;13.128;2022-07-03T04:04:53;99900.00;;;22.80
12875;BMP180;6505;51.114;13.128;2022-07-03T04:07:23;99899.00;;;22.80
12875;BMP180;6505;51.114;13.128;2022-07-03T04:09:51;99902.00;;;22.80
12875;BMP180;6505;51.114;13.128;2022-07-03T04:12:19;99901.00;;;22.80
12875;BMP180;6505;51.114;13.128;2022-07-03T04:14:47;99896.00;;;22.80
12875;BMP180;6505;51.114;13.128;2022-07-03T04:17:15;99886.00;;;22.90
12875;BMP180;6505;51.114;13.128;2022-07-03T04:19:44;99885.00;;;22.90
12875;BMP180;6505;51.114;13.128;2022-07-03T04:22:12;99883.00;;;22.90
12875;BMP180;6505;51.114;13.128;2022-07-03T04:24:42;99875.00;;;22.90
12875;BMP180;6505;51.114;13.128;2022-07-03T04:27:10;99888.00;;;22.90
12875;BMP180;6505;51.114;13.128;2022-07-03T04:29:37;99876.00;;;22.90
12875;BMP180;6505;51.114;13.128;2022-07-03T04:32:07;99868.00;;;22.90
12875;BMP180;6505;51.114;13.128;2022-07-03T04:34:36;99868.00;;;22.90
12875;BMP180;6505;51.114;13.128;2022-07-03T04:37:04;99870.00;;;23.00
12875;BMP180;6505;51.114;13.128;2022-07-03T04:39:32;99853.00;;;23.00
12875;BMP180;6505;51.114;13.128;2022-07-03T04:42:02;99863.00;;;23.00
12875;BMP180;6505;51.114;13.128;2022-07-03T04:44:30;99866.00;;;23.00
12875;BMP180;6505;51.114;13.128;2022-07-03T04:46:58;99865.00;;;23.10
12875;BMP180;6505;51.114;13.128;2022-07-03T04:49:26;99865.00;;;23.10
12875;BMP180;6505;51.114;13.128;2022-07-03T04:51:54;99872.00;;;23.10
12875;BMP180;6505;51.114;13.128;2022-07-03T04:54:23;99869.00;;;23.20
12875;BMP180;6505;51.114;13.128;2022-07-03T04:56:51;99873.00;;;23.20
12875;BMP180;6505;51.114;13.128;2022-07-03T04:59:20;99870.00;;;23.20
12875;BMP180;6505;51.114;13.128;2022-07-03T05:01:48;99869.00;;;23.30
12875;BMP180;6505;51.114;13.128;2022-07-03T05:04:17;99866.00;;;23.30
12875;BMP180;6505;51.114;13.128;2022-07-03T05:06:45;99856.00;;;23.30
12875;BMP180;6505;51.114;13.128;2022-07-03T05:09:13;99867.00;;;23.40
12875;BMP180;6505;51.114;13.128;2022-07-03T05:11:41;99869.00;;;23.40
12875;BMP180;6505;51.114;13.128;2022-07-03T05:14:12;99855.00;;;23.40
12875;BMP180;6505;51.114;13.128;2022-07-03T05:16:42;99863.00;;;23.50
12875;BMP180;6505;51.114;13.128;2022-07-03T05:19:10;99873.00;;;23.50
12875;BMP180;6505;51.114;13.128;2022-07-03T05:21:38;99868.00;;;23.60
12875;BMP180;6505;51.114;13.128;2022-07-03T05:24:07;99859.00;;;23.60
12875;BMP180;6505;51.114;13.128;2022-07-03T05:26:38;99861.00;;;23.70
12875;BMP180;6505;51.114;13.128;2022-07-03T05:29:06;99865.00;;;23.70
12875;BMP180;6505;51.114;13.128;2022-07-03T05:31:34;99862.00;;;23.80
12875;BMP180;6505;51.114;13.128;2022-07-03T05:34:03;99855.00;;;23.80
12875;BMP180;6505;51.114;13.128;2022-07-03T05:36:31;99848.00;;;23.90
12875;BMP180;6505;51.114;13.128;2022-07-03T05:38:59;99854.00;;;23.90
12875;BMP180;6505;51.114;13.128;2022-07-03T05:41:45;99848.00;;;24.00
12875;BMP180;6505;51.114;13.128;2022-07-03T05:44:16;99830.00;;;24.00
12875;BMP180;6505;51.114;13.128;2022-07-03T05:46:44;99856.00;;;24.10
12875;BMP180;6505;51.114;13.128;2022-07-03T05:49:14;99855.00;;;24.10
12875;BMP180;6505;51.114;13.128;2022-07-03T05:51:42;99849.00;;;24.20
12875;BMP180;6505;51.114;13.128;2022-07-03T05:54:10;99841.00;;;24.30
12875;BMP180;6505;51.114;13.128;2022-07-03T05:56:38;99846.00;;;24.30
12875;BMP180;6505;51.114;13.128;2022-07-03T05:59:06;99843.00;;;24.40
12875;BMP180;6505;51.114;13.128;2022-07-03T06:01:35;99847.00;;;24.40
12875;BMP180;6505;51.114;13.128;2022-07-03T06:04:03;99852.00;;;24.50
12875;BMP180;6505;51.114;13.128;2022-07-03T06:06:33;99842.00;;;24.50
12875;BMP180;6505;51.114;13.128;2022-07-03T06:09:01;99844.00;;;24.60
12875;BMP180;6505;51.114;13.128;2022-07-03T06:11:29;99844.00;;;24.60
12875;BMP180;6505;51.114;13.128;2022-07-03T06:13:57;99844.00;;;24.70
12875;BMP180;6505;51.114;13.128;2022-07-03T06:16:27;99855.00;;;24.80
12875;BMP180;6505;51.114;13.128;2022-07-03T06:18:57;99843.00;;;24.80
12875;BMP180;6505;51.114;13.128;2022-07-03T06:21:26;99836.00;;;24.90
12875;BMP180;6505;51.114;13.128;2022-07-03T06:24:04;99841.00;;;24.90
12875;BMP180;6505;51.114;13.128;2022-07-03T06:26:32;99843.00;;;25.00
12875;BMP180;6505;51.114;13.128;2022-07-03T06:29:00;99835.00;;;25.10
12875;BMP180;6505;51.114;13.128;2022-07-03T06:31:28;99836.00;;;25.10
12875;BMP180;6505;51.114;13.128;2022-07-03T06:33:57;99833.00;;;25.20
12875;BMP180;6505;51.114;13.128;2022-07-03T06:36:25;99834.00;;;25.30
12875;BMP180;6505;51.114;13.128;2022-07-03T06:38:53;99810.00;;;25.30
12875;BMP180;6505;51.114;13.128;2022-07-03T06:41:23;99833.00;;;25.40
12875;BMP180;6505;51.114;13.128;2022-07-03T06:43:51;99819.00;;;25.50
12875;BMP180;6505;51.114;13.128;2022-07-03T06:46:19;99830.00;;;25.50
12875;BMP180;6505;51.114;13.128;2022-07-03T06:48:50;99819.00;;;25.60
12875;BMP180;6505;51.114;13.128;2022-07-03T06:51:18;99821.00;;;25.70
12875;BMP180;6505;51.114;13.128;2022-07-03T06:53:46;99825.00;;;25.70
12875;BMP180;6505;51.114;13.128;2022-07-03T06:56:14;99819.00;;;25.80
12875;BMP180;6505;51.114;13.128;2022-07-03T06:58:46;99826.00;;;25.90
12875;BMP180;6505;51.114;13.128;2022-07-03T07:01:14;99819.00;;;25.90
12875;BMP180;6505;51.114;13.128;2022-07-03T07:03:42;99806.00;;;26.00
12875;BMP180;6505;51.114;13.128;2022-07-03T07:06:10;99812.00;;;26.10
12875;BMP180;6505;51.114;13.128;2022-07-03T07:08:38;99817.00;;;26.20
12875;BMP180;6505;51.114;13.128;2022-07-03T07:11:06;99817.00;;;26.20
12875;BMP180;6505;51.114;13.128;2022-07-03T07:13:34;99806.00;;;26.30
12875;BMP180;6505;51.114;13.128;2022-07-03T07:16:04;99799.00;;;26.40
12875;BMP180;6505;51.114;13.128;2022-07-03T07:18:34;99801.00;;;26.40
12875;BMP180;6505;51.114;13.128;2022-07-03T07:21:03;99805.00;;;26.50
12875;BMP180;6505;51.114;13.128;2022-07-03T07:23:31;99795.00;;;26.60
12875;BMP180;6505;51.114;13.128;2022-07-03T07:26:00;99791.00;;;26.50
12875;BMP180;6505;51.114;13.128;2022-07-03T07:28:29;99796.00;;;26.70
12875;BMP180;6505;51.114;13.128;2022-07-03T07:31:02;99797.00;;;26.70
12875;BMP180;6505;51.114;13.128;2022-07-03T07:33:31;99796.00;;;26.80
12875;BMP180;6505;51.114;13.128;2022-07-03T07:36:01;99798.00;;;26.90
12875;BMP180;6505;51.114;13.128;2022-07-03T07:38:29;99775.00;;;26.90
12875;BMP180;6505;51.114;13.128;2022-07-03T07:40:58;99802.00;;;27.00
12875;BMP180;6505;51.114;13.128;2022-07-03T07:43:27;99810.00;;;27.00
12875;BMP180;6505;51.114;13.128;2022-07-03T07:45:56;99800.00;;;27.20
12875;BMP180;6505;51.114;13.128;2022-07-03T07:48:24;99804.00;;;27.40
12875;BMP180;6505;51.114;13.128;2022-07-03T07:50:53;99801.00;;;27.50
12875;BMP180;6505;51.114;13.128;2022-07-03T07:53:24;99796.00;;;27.70
12875;BMP180;6505;51.114;13.128;2022-07-03T07:55:56;99792.00;;;27.90
12875;BMP180;6505;51.114;13.128;2022-07-03T07:58:25;99796.00;;;28.10
12875;BMP180;6505;51.114;13.128;2022-07-03T08:00:55;99795.00;;;28.30
12875;BMP180;6505;51.114;13.128;2022-07-03T08:03:42;99798.00;;;28.60
12875;BMP180;6505;51.114;13.128;2022-07-03T08:06:30;99796.00;;;28.80
12875;BMP180;6505;51.114;13.128;2022-07-03T08:09:00;99800.00;;;29.10
12875;BMP180;6505;51.114;13.128;2022-07-03T08:11:29;99800.00;;;29.30
12875;BMP180;6505;51.114;13.128;2022-07-03T08:13:58;99788.00;;;29.50
12875;BMP180;6505;51.114;13.128;2022-07-03T08:16:27;99794.00;;;29.70
12875;BMP180;6505;51.114;13.128;2022-07-03T08:18:55;99795.00;;;29.90
12875;BMP180;6505;51.114;13.128;2022-07-03T08:21:23;99777.00;;;30.10
12875;BMP180;6505;51.114;13.128;2022-07-03T08:23:54;99788.00;;;30.30
12875;BMP180;6505;51.114;13.128;2022-07-03T08:26:28;99784.00;;;30.40
12875;BMP180;6505;51.114;13.128;2022-07-03T08:28:57;99788.00;;;30.60
12875;BMP180;6505;51.114;13.128;2022-07-03T08:31:27;99774.00;;;30.80
12875;BMP180;6505;51.114;13.128;2022-07-03T08:33:55;99784.00;;;31.00
12875;BMP180;6505;51.114;13.128;2022-07-03T08:36:23;99773.00;;;31.10
12875;BMP180;6505;51.114;13.128;2022-07-03T08:38:53;99775.00;;;31.30
12875;BMP180;6505;51.114;13.128;2022-07-03T08:41:23;99776.00;;;31.40
12875;BMP180;6505;51.114;13.128;2022-07-03T08:43:55;99769.00;;;31.60
12875;BMP180;6505;51.114;13.128;2022-07-03T08:46:28;99771.00;;;31.70
12875;BMP180;6505;51.114;13.128;2022-07-03T08:49:01;99778.00;;;31.90
12875;BMP180;6505;51.114;13.128;2022-07-03T08:51:35;99778.00;;;31.90
12875;BMP180;6505;51.114;13.128;2022-07-03T08:54:06;99782.00;;;32.00
12875;BMP180;6505;51.114;13.128;2022-07-03T08:56:36;99764.00;;;32.20
12875;BMP180;6505;51.114;13.128;2022-07-03T08:59:05;99772.00;;;32.20
12875;BMP180;6505;51.114;13.128;2022-07-03T09:01:35;99788.00;;;32.30
12875;BMP180;6505;51.114;13.128;2022-07-03T09:04:12;99770.00;;;32.10
12875;BMP180;6505;51.114;13.128;2022-07-03T09:06:42;99766.00;;;32.30
12875;BMP180;6505;51.114;13.128;2022-07-03T09:09:13;99747.00;;;32.30
12875;BMP180;6505;51.114;13.128;2022-07-03T09:11:54;99759.00;;;32.10
12875;BMP180;6505;51.114;13.128;2022-07-03T09:14:32;99761.00;;;32.20
12875;BMP180;6505;51.114;13.128;2022-07-03T09:17:40;99775.00;;;32.20
12875;BMP180;6505;51.114;13.128;2022-07-03T09:20:33;99769.00;;;32.10
12875;BMP180;6505;51.114;13.128;2022-07-03T09:23:17;99762.00;;;32.10
12875;BMP180;6505;51.114;13.128;2022-07-03T09:25:56;99760.00;;;32.00
12875;BMP180;6505;51.114;13.128;2022-07-03T09:28:41;99751.00;;;32.00
12875;BMP180;6505;51.114;13.128;2022-07-03T09:31:11;99752.00;;;32.10
12875;BMP180;6505;51.114;13.128;2022-07-03T09:34:00;99751.00;;;32.00
12875;BMP180;6505;51.114;13.128;2022-07-03T09:36:40;99750.00;;;32.00
12875;BMP180;6505;51.114;13.128;2022-07-03T09:39:20;99756.00;;;31.90
12875;BMP180;6505;51.114;13.128;2022-07-03T09:41:56;99756.00;;;31.90
12875;BMP180;6505;51.114;13.128;2022-07-03T09:44:36;99747.00;;;31.90
12875;BMP180;6505;51.114;13.128;2022-07-03T09:47:16;99749.00;;;31.90
12875;BMP180;6505;51.114;13.128;2022-07-03T09:49:46;99750.00;;;31.90
12875;BMP180;6505;51.114;13.128;2022-07-03T09:52:28;99750.00;;;31.80
12875;BMP180;6505;51.114;13.128;2022-07-03T09:54:56;99749.00;;;31.80
12875;BMP180;6505;51.114;13.128;2022-07-03T09:57:28;99752.00;;;31.80
12875;BMP180;6505;51.114;13.128;2022-07-03T10:00:13;99752.00;;;31.70
12875;BMP180;6505;51.114;13.128;2022-07-03T10:02:56;99755.00;;;31.70
12875;BMP180;6505;51.114;13.128;2022-07-03T10:05:27;99753.00;;;31.70
12875;BMP180;6505;51.114;13.128;2022-07-03T10:07:58;99753.00;;;31.60
12875;BMP180;6505;51.114;13.128;2022-07-03T10:10:31;99746.00;;;31.60
12875;BMP180;6505;51.114;13.128;2022-07-03T10:13:02;99754.00;;;31.60
12875;BMP180;6505;51.114;13.128;2022-07-03T10:15:33;99751.00;;;31.50
12875;BMP180;6505;51.114;13.128;2022-07-03T10:18:05;99749.00;;;31.50
12875;BMP180;6505;51.114;13.128;2022-07-03T10:20:38;99748.00;;;31.50
12875;BMP180;6505;51.114;13.128;2022-07-03T10:23:07;99749.00;;;31.50
12875;BMP180;6505;51.114;13.128;2022-07-03T10:25:37;99749.00;;;31.50
12875;BMP180;6505;51.114;13.128;2022-07-03T10:28:12;99748.00;;;31.40
12875;BMP180;6505;51.114;13.128;2022-07-03T10:30:44;99744.00;;;31.40
12875;BMP180;6505;51.114;13.128;2022-07-03T10:33:12;99748.00;;;31.40
12875;BMP180;6505;51.114;13.128;2022-07-03T10:35:42;99742.00;;;31.40
12875;BMP180;6505;51.114;13.128;2022-07-03T10:38:36;99738.00;;;31.30
12875;BMP180;6505;51.114;13.128;2022-07-03T10:41:11;99729.00;;;31.30
12875;BMP180;6505;51.114;13.128;2022-07-03T10:44:02;99731.00;;;31.30
12875;BMP180;6505;51.114;13.128;2022-07-03T10:46:48;99727.00;;;31.20
12875;BMP180;6505;51.114;13.128;2022-07-03T10:49:23;99726.00;;;31.20
12875;BMP180;6505;51.114;13.128;2022-07-03T10:51:56;99715.00;;;31.20
12875;BMP180;6505;51.114;13.128;2022-07-03T10:54:29;99723.00;;;31.20
12875;BMP180;6505;51.114;13.128;2022-07-03T10:57:17;99712.00;;;31.10
12875;BMP180;6505;51.114;13.128;2022-07-03T11:00:18;99703.00;;;31.00
12875;BMP180;6505;51.114;13.128;2022-07-03T11:02:49;99710.00;;;31.10
12875;BMP180;6505;51.114;13.128;2022-07-03T11:05:26;99712.00;;;31.00
12875;BMP180;6505;51.114;13.128;2022-07-03T11:08:08;99714.00;;;31.00
12875;BMP180;6505;51.114;13.128;2022-07-03T11:10:40;99710.00;;;31.00
12875;BMP180;6505;51.114;13.128;2022-07-03T11:13:17;99705.00;;;31.00
12875;BMP180;6505;51.114;13.128;2022-07-03T11:15:52;99705.00;;;31.00
12875;BMP180;6505;51.114;13.128;2022-07-03T11:18:30;99698.00;;;31.00
12875;BMP180;6505;51.114;13.128;2022-07-03T11:21:21;99700.00;;;30.90
12875;BMP180;6505;51.114;13.128;2022-07-03T11:24:19;99701.00;;;30.90
12875;BMP180;6505;51.114;13.128;2022-07-03T11:27:19;99693.00;;;30.80
12875;BMP180;6505;51.114;13.128;2022-07-03T11:29:57;99693.00;;;30.80
12875;BMP180;6505;51.114;13.128;2022-07-03T11:33:01;99685.00;;;30.80
12875;BMP180;6505;51.114;13.128;2022-07-03T11:35:50;99688.00;;;30.80
12875;BMP180;6505;51.114;13.128;2022-07-03T11:38:29;99681.00;;;30.80
12875;BMP180;6505;51.114;13.128;2022-07-03T11:40:59;99678.00;;;30.80
12875;BMP180;6505;51.114;13.128;2022-07-03T11:43:28;99676.00;;;30.80
12875;BMP180;6505;51.114;13.128;2022-07-03T11:45:57;99678.00;;;30.80
12875;BMP180;6505;51.114;13.128;2022-07-03T11:48:30;99675.00;;;30.80
12875;BMP180;6505;51.114;13.128;2022-07-03T11:51:00;99680.00;;;30.80
12875;BMP180;6505;51.114;13.128;2022-07-03T11:53:31;99684.00;;;30.70
12875;BMP180;6505;51.114;13.128;2022-07-03T11:56:03;99675.00;;;30.80
12875;BMP180;6505;51.114;13.128;2022-07-03T11:58:43;99663.00;;;30.70
12875;BMP180;6505;51.114;13.128;2022-07-03T12:01:28;99666.00;;;30.70
12875;BMP180;6505;51.114;13.128;2022-07-03T12:04:09;99670.00;;;30.70
12875;BMP180;6505;51.114;13.128;2022-07-03T12:06:41;99665.00;;;30.70
12875;BMP180;6505;51.114;13.128;2022-07-03T12:09:15;99657.00;;;30.70
12875;BMP180;6505;51.114;13.128;2022-07-03T12:11:57;99662.00;;;30.60
12875;BMP180;6505;51.114;13.128;2022-07-03T12:14:40;99659.00;;;30.60
12875;BMP180;6505;51.114;13.128;2022-07-03T12:17:12;99660.00;;;30.60
12875;BMP180;6505;51.114;13.128;2022-07-03T12:19:49;99660.00;;;30.60
12875;BMP180;6505;51.114;13.128;2022-07-03T12:22:25;99652.00;;;30.60
12875;BMP180;6505;51.114;13.128;2022-07-03T12:24:59;99653.00;;;30.60
12875;BMP180;6505;51.114;13.128;2022-07-03T12:27:29;99653.00;;;30.60
12875;BMP180;6505;51.114;13.128;2022-07-03T12:29:58;99645.00;;;30.60
12875;BMP180;6505;51.114;13.128;2022-07-03T12:32:27;99652.00;;;30.60
12875;BMP180;6505;51.114;13.128;2022-07-03T12:34:56;99646.00;;;30.60
12875;BMP180;6505;51.114;13.128;2022-07-03T12:37:32;99647.00;;;30.50
12875;BMP180;6505;51.114;13.128;2022-07-03T12:40:02;99646.00;;;30.60
12875;BMP180;6505;51.114;13.128;2022-07-03T12:42:30;99644.00;;;30.50
12875;BMP180;6505;51.114;13.128;2022-07-03T12:45:00;99647.00;;;30.50
12875;BMP180;6505;51.114;13.128;2022-07-03T12:47:31;99632.00;;;30.50
12875;BMP180;6505;51.114;13.128;2022-07-03T12:50:03;99630.00;;;30.50
12875;BMP180;6505;51.114;13.128;2022-07-03T12:52:33;99629.00;;;30.50
12875;BMP180;6505;51.114;13.128;2022-07-03T12:55:02;99629.00;;;30.50
12875;BMP180;6505;51.114;13.128;2022-07-03T12:57:30;99628.00;;;30.50
12875;BMP180;6505;51.114;13.128;2022-07-03T13:00:17;99628.00;;;30.50
12875;BMP180;6505;51.114;13.128;2022-07-03T13:02:48;99625.00;;;30.50
12875;BMP180;6505;51.114;13.128;2022-07-03T13:05:19;99621.00;;;30.40
12875;BMP180;6505;51.114;13.128;2022-07-03T13:07:50;99619.00;;;30.40
12875;BMP180;6505;51.114;13.128;2022-07-03T13:10:21;99624.00;;;30.40
12875;BMP180;6505;51.114;13.128;2022-07-03T13:12:51;99617.00;;;30.40
12875;BMP180;6505;51.114;13.128;2022-07-03T13:15:23;99616.00;;;30.40
12875;BMP180;6505;51.114;13.128;2022-07-03T13:18:01;99622.00;;;30.40
12875;BMP180;6505;51.114;13.128;2022-07-03T13:20:32;99626.00;;;30.40
12875;BMP180;6505;51.114;13.128;2022-07-03T13:23:03;99620.00;;;30.40
12875;BMP180;6505;51.114;13.128;2022-07-03T13:25:33;99618.00;;;30.40
12875;BMP180;6505;51.114;13.128;2022-07-03T13:28:06;99614.00;;;30.40
12875;BMP180;6505;51.114;13.128;2022-07-03T13:30:35;99609.00;;;30.40
12875;BMP180;6505;51.114;13.128;2022-07-03T13:33:04;99614.00;;;30.40
12875;BMP180;6505;51.114;13.128;2022-07-03T13:35:34;99603.00;;;30.40
12875;BMP180;6505;51.114;13.128;2022-07-03T13:38:03;99600.00;;;30.40
12875;BMP180;6505;51.114;13.128;2022-07-03T13:40:31;99609.00;;;30.40
12875;BMP180;6505;51.114;13.128;2022-07-03T13:43:01;99602.00;;;30.40
12875;BMP180;6505;51.114;13.128;2022-07-03T13:45:29;99599.00;;;30.40
12875;BMP180;6505;51.114;13.128;2022-07-03T13:47:57;99605.00;;;30.40
12875;BMP180;6505;51.114;13.128;2022-07-03T13:50:25;99602.00;;;30.40
12875;BMP180;6505;51.114;13.128;2022-07-03T13:52:56;99598.00;;;30.30
12875;BMP180;6505;51.114;13.128;2022-07-03T13:55:24;99599.00;;;30.30
12875;BMP180;6505;51.114;13.128;2022-07-03T13:57:52;99590.00;;;30.30
12875;BMP180;6505;51.114;13.128;2022-07-03T14:00:20;99589.00;;;30.30
12875;BMP180;6505;51.114;13.128;2022-07-03T14:02:48;99584.00;;;30.30
12875;BMP180;6505;51.114;13.128;2022-07-03T14:05:16;99586.00;;;30.30
12875;BMP180;6505;51.114;13.128;2022-07-03T14:07:44;99582.00;;;30.30
12875;BMP180;6505;51.114;13.128;2022-07-03T14:10:15;99581.00;;;30.30
12875;BMP180;6505;51.114;13.128;2022-07-03T14:12:43;99571.00;;;30.30
12875;BMP180;6505;51.114;13.128;2022-07-03T14:15:11;99572.00;;;30.30
12875;BMP180;6505;51.114;13.128;2022-07-03T14:17:40;99570.00;;;30.30
12875;BMP180;6505;51.114;13.128;2022-07-03T14:20:10;99572.00;;;30.30
12875;BMP180;6505;51.114;13.128;2022-07-03T14:22:39;99572.00;;;30.30
12875;BMP180;6505;51.114;13.128;2022-07-03T14:25:07;99563.00;;;30.30
12875;BMP180;6505;51.114;13.128;2022-07-03T14:27:37;99561.00;;;30.30
12875;BMP180;6505;51.114;13.128;2022-07-03T14:30:23;99555.00;;;30.30
12875;BMP180;6505;51.114;13.128;2022-07-03T14:33:08;99553.00;;;30.20
12875;BMP180;6505;51.114;13.128;2022-07-03T14:35:36;99556.00;;;30.30
12875;BMP180;6505;51.114;13.128;2022-07-03T14:38:05;99562.00;;;30.30
12875;BMP180;6505;51.114;13.128;2022-07-03T14:40:33;99562.00;;;30.20
12875;BMP180;6505;51.114;13.128;2022-07-03T14:43:02;99563.00;;;30.20